This is the latest recevied weather packets stored in our database for station/object VK2OB. If no packets are shown the sender has not sent any weather packets the latest 10 day(s).
| Time | Temp. | Humidity | Pressure | Rain* | Wind** | Luminosity | Snow |
|---|---|---|---|---|---|---|---|
| 1777692124 | 25° C | 58% | 1022.6 hPa | 0 mm | - | - | - |
| 1777691825 | 25° C | 58% | 1022.7 hPa | 0 mm | - | - | - |
| 1777691525 | 25° C | 59% | 1022.8 hPa | 0 mm | - | - | - |
| 1777691225 | 24.44° C | 60% | 1022.8 hPa | 0 mm | - | - | - |
| 1777690927 | 24.44° C | 61% | 1023 hPa | 0 mm | - | - | - |
| 1777690627 | 24.44° C | 61% | 1023 hPa | 0 mm | - | - | - |
| 1777690328 | 23.89° C | 64% | 1023.2 hPa | 0 mm | - | - | - |
| 1777690028 | 23.89° C | 66% | 1023.2 hPa | 0 mm | - | - | - |
| 1777689728 | 23.89° C | 68% | 1023.4 hPa | 0 mm | - | - | - |
| 1777689428 | 23.89° C | 68% | 1023.5 hPa | 0 mm | - | - | - |
| 1777689129 | 23.89° C | 70% | 1023.6 hPa | 0 mm | - | - | - |
| 1777688829 | 23.33° C | 69% | 1023.7 hPa | 0 mm | - | - | - |
| 1777674317 | 19.44° C | 94% | 1025.6 hPa | 0 mm | - | - | - |
| 1777673719 | 18.89° C | 95% | 1025.8 hPa | 0 mm | - | - | - |
| 1777667690 | 17.22° C | 93% | 1025.4 hPa | 0 mm | - | - | - |
| 1777667094 | 18.33° C | 95% | 1025.3 hPa | 0 mm | - | - | - |
| 1777666200 | 18.33° C | 95% | 1025.3 hPa | 0 mm | - | - | - |
| 1777665597 | 17.78° C | 95% | 1025.2 hPa | 0 mm | - | - | - |
| 1777663205 | 17.22° C | 94% | 1024.9 hPa | 0 mm | - | - | - |
| 1777662906 | 17.22° C | 94% | 1025 hPa | 0 mm | - | - | - |
| 1777662607 | 17.22° C | 94% | 1025 hPa | 0 mm | - | - | - |
| 1777662308 | 17.22° C | 94% | 1024.9 hPa | 0 mm | - | - | - |
| 1777662009 | 17.22° C | 94% | 1025 hPa | 0 mm | - | - | - |
| 1777661710 | 17.22° C | 94% | 1025 hPa | 0 mm | - | - | - |
| 1777660813 | 17.22° C | 94% | 1025 hPa | 0 mm | - | - | - |
* Rain latest hour (hover to see other rain measurements)
** Current wind speed in m/s (hover to see current wind gust speed)